sensor_id;sensor_type;location;lat;lon;timestamp;pressure;altitude;pressure_sealevel;temperature;humidity
74905;BME280;63465;50.862;6.220;2022-11-20T00:00:17;99529.69;;;4.13;78.32
74905;BME280;63465;50.862;6.220;2022-11-20T00:02:43;99534.19;;;4.08;79.21
74905;BME280;63465;50.862;6.220;2022-11-20T00:05:11;99524.81;;;3.98;79.62
74905;BME280;63465;50.862;6.220;2022-11-20T00:07:38;99528.78;;;4.14;79.23
74905;BME280;63465;50.862;6.220;2022-11-20T00:10:05;99524.63;;;4.40;77.00
74905;BME280;63465;50.862;6.220;2022-11-20T00:12:32;99530.84;;;4.36;78.07
74905;BME280;63465;50.862;6.220;2022-11-20T00:14:59;99519.63;;;4.31;77.39
74905;BME280;63465;50.862;6.220;2022-11-20T00:17:25;99517.34;;;4.17;78.17
74905;BME280;63465;50.862;6.220;2022-11-20T00:19:52;99514.09;;;4.07;78.19
74905;BME280;63465;50.862;6.220;2022-11-20T00:22:20;99504.88;;;4.25;77.59
74905;BME280;63465;50.862;6.220;2022-11-20T00:24:47;99512.88;;;4.20;78.54
74905;BME280;63465;50.862;6.220;2022-11-20T00:27:13;99506.25;;;4.05;79.09
74905;BME280;63465;50.862;6.220;2022-11-20T00:29:40;99507.41;;;3.95;79.45
74905;BME280;63465;50.862;6.220;2022-11-20T00:32:07;99508.75;;;4.10;79.27
74905;BME280;63465;50.862;6.220;2022-11-20T00:34:34;99508.78;;;4.08;79.71
74905;BME280;63465;50.862;6.220;2022-11-20T00:37:00;99512.78;;;3.89;80.50
74905;BME280;63465;50.862;6.220;2022-11-20T00:39:28;99511.22;;;3.82;80.49
74905;BME280;63465;50.862;6.220;2022-11-20T00:41:55;99511.00;;;3.91;80.42
74905;BME280;63465;50.862;6.220;2022-11-20T00:44:21;99503.13;;;4.24;79.58
74905;BME280;63465;50.862;6.220;2022-11-20T00:46:48;99500.81;;;4.46;77.61
74905;BME280;63465;50.862;6.220;2022-11-20T00:49:15;99505.16;;;4.47;77.49
74905;BME280;63465;50.862;6.220;2022-11-20T00:51:41;99508.41;;;4.57;77.07
74905;BME280;63465;50.862;6.220;2022-11-20T00:54:08;99512.06;;;4.51;77.17
74905;BME280;63465;50.862;6.220;2022-11-20T00:56:36;99514.13;;;4.40;77.23
74905;BME280;63465;50.862;6.220;2022-11-20T00:59:03;99505.56;;;4.32;77.97
74905;BME280;63465;50.862;6.220;2022-11-20T01:01:30;99509.03;;;4.34;78.04
74905;BME280;63465;50.862;6.220;2022-11-20T01:03:57;99511.66;;;4.34;77.77
74905;BME280;63465;50.862;6.220;2022-11-20T01:06:26;99510.66;;;4.38;77.80
74905;BME280;63465;50.862;6.220;2022-11-20T01:08:55;99506.03;;;4.47;76.60
74905;BME280;63465;50.862;6.220;2022-11-20T01:11:24;99508.78;;;4.43;77.14
74905;BME280;63465;50.862;6.220;2022-11-20T01:13:53;99510.81;;;3.99;79.18
74905;BME280;63465;50.862;6.220;2022-11-20T01:16:22;99509.53;;;4.15;79.03
74905;BME280;63465;50.862;6.220;2022-11-20T01:18:50;99514.34;;;3.96;79.59
74905;BME280;63465;50.862;6.220;2022-11-20T01:21:20;99510.59;;;4.06;79.49
74905;BME280;63465;50.862;6.220;2022-11-20T01:23:47;99502.03;;;4.33;78.46
74905;BME280;63465;50.862;6.220;2022-11-20T01:26:17;99500.22;;;4.02;79.95
74905;BME280;63465;50.862;6.220;2022-11-20T01:28:44;99499.59;;;3.90;80.48
74905;BME280;63465;50.862;6.220;2022-11-20T01:31:14;99499.84;;;3.81;80.90
74905;BME280;63465;50.862;6.220;2022-11-20T01:33:42;99494.28;;;3.95;80.44
74905;BME280;63465;50.862;6.220;2022-11-20T01:36:10;99488.34;;;4.21;80.06
74905;BME280;63465;50.862;6.220;2022-11-20T01:38:37;99485.63;;;4.24;78.92
74905;BME280;63465;50.862;6.220;2022-11-20T01:41:05;99477.03;;;4.18;78.91
74905;BME280;63465;50.862;6.220;2022-11-20T01:43:32;99477.16;;;4.13;79.51
74905;BME280;63465;50.862;6.220;2022-11-20T01:48:54;99474.25;;;4.24;78.24
74905;BME280;63465;50.862;6.220;2022-11-20T01:51:26;99476.38;;;4.42;78.00
74905;BME280;63465;50.862;6.220;2022-11-20T01:53:56;99482.28;;;4.18;78.70
74905;BME280;63465;50.862;6.220;2022-11-20T01:56:26;99475.72;;;4.34;78.02
74905;BME280;63465;50.862;6.220;2022-11-20T01:58:56;99473.69;;;4.13;78.42
74905;BME280;63465;50.862;6.220;2022-11-20T02:01:24;99473.78;;;4.41;77.47
74905;BME280;63465;50.862;6.220;2022-11-20T02:03:52;99480.56;;;4.50;76.86
74905;BME280;63465;50.862;6.220;2022-11-20T02:06:23;99480.53;;;4.51;76.72
74905;BME280;63465;50.862;6.220;2022-11-20T02:08:51;99482.16;;;4.55;76.39
74905;BME280;63465;50.862;6.220;2022-11-20T02:11:17;99489.59;;;4.39;77.17
74905;BME280;63465;50.862;6.220;2022-11-20T02:13:45;99485.25;;;4.38;77.47
74905;BME280;63465;50.862;6.220;2022-11-20T02:16:14;99485.50;;;4.29;77.82
74905;BME280;63465;50.862;6.220;2022-11-20T02:18:41;99480.34;;;4.26;78.23
74905;BME280;63465;50.862;6.220;2022-11-20T02:21:17;99473.41;;;4.23;78.28
74905;BME280;63465;50.862;6.220;2022-11-20T02:24:04;99474.97;;;4.31;78.00
74905;BME280;63465;50.862;6.220;2022-11-20T02:26:35;99467.97;;;4.29;78.33
74905;BME280;63465;50.862;6.220;2022-11-20T02:29:03;99469.91;;;4.23;78.40
74905;BME280;63465;50.862;6.220;2022-11-20T02:31:36;99470.03;;;4.18;79.10
74905;BME280;63465;50.862;6.220;2022-11-20T02:34:03;99472.50;;;4.24;78.12
74905;BME280;63465;50.862;6.220;2022-11-20T02:36:30;99468.78;;;4.32;78.42
74905;BME280;63465;50.862;6.220;2022-11-20T02:38:58;99465.47;;;4.25;77.90
74905;BME280;63465;50.862;6.220;2022-11-20T02:41:32;99465.94;;;4.08;78.61
74905;BME280;63465;50.862;6.220;2022-11-20T02:43:59;99471.63;;;3.91;78.51
74905;BME280;63465;50.862;6.220;2022-11-20T02:46:25;99466.09;;;4.02;79.32
74905;BME280;63465;50.862;6.220;2022-11-20T02:48:52;99461.84;;;3.96;79.16
74905;BME280;63465;50.862;6.220;2022-11-20T02:51:19;99462.56;;;4.03;79.03
74905;BME280;63465;50.862;6.220;2022-11-20T02:53:45;99461.06;;;3.92;79.70
74905;BME280;63465;50.862;6.220;2022-11-20T02:56:12;99460.91;;;3.99;79.97
74905;BME280;63465;50.862;6.220;2022-11-20T02:58:40;99456.34;;;4.05;79.38
74905;BME280;63465;50.862;6.220;2022-11-20T03:01:07;99456.41;;;4.04;79.82
74905;BME280;63465;50.862;6.220;2022-11-20T03:03:33;99455.66;;;3.99;80.25
74905;BME280;63465;50.862;6.220;2022-11-20T03:06:00;99458.22;;;4.02;80.51
74905;BME280;63465;50.862;6.220;2022-11-20T03:08:27;99452.13;;;4.01;81.01
74905;BME280;63465;50.862;6.220;2022-11-20T03:10:53;99456.22;;;3.77;81.15
74905;BME280;63465;50.862;6.220;2022-11-20T03:13:20;99455.09;;;4.20;79.97
74905;BME280;63465;50.862;6.220;2022-11-20T03:15:48;99457.41;;;4.00;79.99
74905;BME280;63465;50.862;6.220;2022-11-20T03:18:15;99459.63;;;4.15;79.86
74905;BME280;63465;50.862;6.220;2022-11-20T03:20:42;99451.53;;;4.23;79.66
74905;BME280;63465;50.862;6.220;2022-11-20T03:23:08;99457.22;;;4.39;78.25
74905;BME280;63465;50.862;6.220;2022-11-20T03:25:35;99456.69;;;3.93;79.73
74905;BME280;63465;50.862;6.220;2022-11-20T03:28:02;99455.38;;;4.09;80.83
74905;BME280;63465;50.862;6.220;2022-11-20T03:30:28;99452.88;;;4.05;79.50
74905;BME280;63465;50.862;6.220;2022-11-20T03:32:56;99461.78;;;3.99;81.28
74905;BME280;63465;50.862;6.220;2022-11-20T03:35:23;99464.28;;;4.04;80.97
74905;BME280;63465;50.862;6.220;2022-11-20T03:37:50;99461.63;;;4.05;80.51
74905;BME280;63465;50.862;6.220;2022-11-20T03:40:17;99455.50;;;4.05;81.19
74905;BME280;63465;50.862;6.220;2022-11-20T03:42:43;99451.47;;;3.91;80.89
74905;BME280;63465;50.862;6.220;2022-11-20T03:45:13;99449.00;;;3.85;81.33
74905;BME280;63465;50.862;6.220;2022-11-20T03:47:40;99450.00;;;4.14;81.18
74905;BME280;63465;50.862;6.220;2022-11-20T03:50:10;99452.97;;;4.02;80.98
74905;BME280;63465;50.862;6.220;2022-11-20T03:52:37;99452.81;;;4.08;80.36
74905;BME280;63465;50.862;6.220;2022-11-20T03:55:04;99451.16;;;4.04;81.17
74905;BME280;63465;50.862;6.220;2022-11-20T03:57:31;99445.56;;;4.16;81.18
74905;BME280;63465;50.862;6.220;2022-11-20T03:59:58;99441.13;;;4.20;80.77
74905;BME280;63465;50.862;6.220;2022-11-20T04:02:24;99444.75;;;4.14;80.87
74905;BME280;63465;50.862;6.220;2022-11-20T04:04:51;99441.44;;;4.07;80.68
74905;BME280;63465;50.862;6.220;2022-11-20T04:07:19;99441.50;;;4.06;81.74
74905;BME280;63465;50.862;6.220;2022-11-20T04:09:46;99441.56;;;4.03;81.84
74905;BME280;63465;50.862;6.220;2022-11-20T04:12:12;99435.75;;;4.24;81.43
74905;BME280;63465;50.862;6.220;2022-11-20T04:14:39;99434.91;;;4.22;81.25
74905;BME280;63465;50.862;6.220;2022-11-20T04:17:05;99428.25;;;4.10;80.87
74905;BME280;63465;50.862;6.220;2022-11-20T04:19:32;99443.91;;;4.14;80.91
74905;BME280;63465;50.862;6.220;2022-11-20T04:21:59;99443.31;;;4.02;81.83
74905;BME280;63465;50.862;6.220;2022-11-20T04:24:27;99439.84;;;4.02;82.08
74905;BME280;63465;50.862;6.220;2022-11-20T04:26:54;99443.44;;;3.98;81.97
74905;BME280;63465;50.862;6.220;2022-11-20T04:29:20;99449.69;;;3.92;82.51
74905;BME280;63465;50.862;6.220;2022-11-20T04:31:47;99446.69;;;3.73;83.50
74905;BME280;63465;50.862;6.220;2022-11-20T04:34:14;99443.59;;;3.57;83.91
74905;BME280;63465;50.862;6.220;2022-11-20T04:36:40;99437.53;;;3.53;84.35
74905;BME280;63465;50.862;6.220;2022-11-20T04:39:12;99447.03;;;3.59;83.99
74905;BME280;63465;50.862;6.220;2022-11-20T04:41:40;99440.94;;;3.59;83.65
74905;BME280;63465;50.862;6.220;2022-11-20T04:44:07;99437.63;;;3.50;83.73
74905;BME280;63465;50.862;6.220;2022-11-20T04:46:35;99439.63;;;3.41;84.20
74905;BME280;63465;50.862;6.220;2022-11-20T04:49:02;99437.25;;;3.30;84.62
74905;BME280;63465;50.862;6.220;2022-11-20T04:51:29;99436.41;;;3.28;84.42
74905;BME280;63465;50.862;6.220;2022-11-20T04:53:56;99440.50;;;3.39;84.64
74905;BME280;63465;50.862;6.220;2022-11-20T04:56:23;99442.81;;;3.52;84.11
74905;BME280;63465;50.862;6.220;2022-11-20T04:58:51;99442.88;;;3.50;83.68
74905;BME280;63465;50.862;6.220;2022-11-20T05:01:20;99445.38;;;3.55;83.21
74905;BME280;63465;50.862;6.220;2022-11-20T05:03:47;99427.19;;;3.47;83.68
74905;BME280;63465;50.862;6.220;2022-11-20T05:06:15;99444.81;;;3.42;83.42
74905;BME280;63465;50.862;6.220;2022-11-20T05:08:42;99441.59;;;3.31;84.16
74905;BME280;63465;50.862;6.220;2022-11-20T05:11:11;99441.59;;;3.31;83.95
74905;BME280;63465;50.862;6.220;2022-11-20T05:13:38;99446.66;;;3.38;83.83
74905;BME280;63465;50.862;6.220;2022-11-20T05:16:09;99445.38;;;3.55;83.33
74905;BME280;63465;50.862;6.220;2022-11-20T05:18:36;99447.88;;;3.60;82.79
74905;BME280;63465;50.862;6.220;2022-11-20T05:21:04;99451.94;;;3.73;82.77
74905;BME280;63465;50.862;6.220;2022-11-20T05:23:32;99452.97;;;3.66;82.49
74905;BME280;63465;50.862;6.220;2022-11-20T05:25:59;99444.16;;;3.70;81.59
74905;BME280;63465;50.862;6.220;2022-11-20T05:28:27;99443.22;;;3.72;81.49
74905;BME280;63465;50.862;6.220;2022-11-20T05:30:54;99442.34;;;3.72;82.06
74905;BME280;63465;50.862;6.220;2022-11-20T05:33:23;99440.59;;;3.72;82.53
74905;BME280;63465;50.862;6.220;2022-11-20T05:35:49;99441.53;;;3.70;83.05
74905;BME280;63465;50.862;6.220;2022-11-20T05:38:16;99438.94;;;3.68;82.92
74905;BME280;63465;50.862;6.220;2022-11-20T05:40:43;99431.03;;;3.70;82.86
74905;BME280;63465;50.862;6.220;2022-11-20T05:43:09;99438.84;;;3.71;83.57
74905;BME280;63465;50.862;6.220;2022-11-20T05:45:36;99438.03;;;3.69;83.23
74905;BME280;63465;50.862;6.220;2022-11-20T05:48:03;99426.50;;;3.75;83.92
74905;BME280;63465;50.862;6.220;2022-11-20T05:50:31;99424.88;;;3.71;83.66
74905;BME280;63465;50.862;6.220;2022-11-20T05:52:58;99428.56;;;3.64;83.74
74905;BME280;63465;50.862;6.220;2022-11-20T05:55:25;99429.19;;;3.73;83.22
74905;BME280;63465;50.862;6.220;2022-11-20T05:57:52;99427.19;;;3.47;84.24
74905;BME280;63465;50.862;6.220;2022-11-20T06:00:20;99439.34;;;3.51;83.97
74905;BME280;63465;50.862;6.220;2022-11-20T06:02:46;99431.81;;;3.73;83.55
74905;BME280;63465;50.862;6.220;2022-11-20T06:05:13;99435.38;;;3.71;84.07
74905;BME280;63465;50.862;6.220;2022-11-20T06:07:41;99439.78;;;3.69;83.91
74905;BME280;63465;50.862;6.220;2022-11-20T06:10:09;99440.44;;;3.79;83.97
74905;BME280;63465;50.862;6.220;2022-11-20T06:12:35;99437.19;;;3.67;83.50
74905;BME280;63465;50.862;6.220;2022-11-20T06:15:03;99440.56;;;3.74;83.71
74905;BME280;63465;50.862;6.220;2022-11-20T06:17:30;99433.56;;;3.73;83.87
74905;BME280;63465;50.862;6.220;2022-11-20T06:19:56;99435.69;;;3.59;83.84
74905;BME280;63465;50.862;6.220;2022-11-20T06:22:23;99439.88;;;3.66;83.76
74905;BME280;63465;50.862;6.220;2022-11-20T06:24:51;99443.63;;;3.55;84.21
74905;BME280;63465;50.862;6.220;2022-11-20T06:27:18;99452.34;;;3.56;84.22
74905;BME280;63465;50.862;6.220;2022-11-20T06:29:44;99454.16;;;3.54;83.84
74905;BME280;63465;50.862;6.220;2022-11-20T06:32:11;99451.53;;;3.54;84.20
74905;BME280;63465;50.862;6.220;2022-11-20T06:34:38;99456.44;;;3.68;83.52
74905;BME280;63465;50.862;6.220;2022-11-20T06:37:04;99459.19;;;3.63;83.24
74905;BME280;63465;50.862;6.220;2022-11-20T06:39:31;99469.72;;;3.62;83.30
74905;BME280;63465;50.862;6.220;2022-11-20T06:41:59;99464.66;;;3.54;83.38
74905;BME280;63465;50.862;6.220;2022-11-20T06:44:26;99462.75;;;3.61;83.00
74905;BME280;63465;50.862;6.220;2022-11-20T06:46:52;99471.53;;;3.58;82.80
74905;BME280;63465;50.862;6.220;2022-11-20T06:49:19;99473.09;;;3.67;82.51
74905;BME280;63465;50.862;6.220;2022-11-20T06:51:46;99472.69;;;3.82;82.64
74905;BME280;63465;50.862;6.220;2022-11-20T06:54:12;99473.97;;;3.66;82.89
74905;BME280;63465;50.862;6.220;2022-11-20T06:56:39;99475.78;;;3.64;82.34
74905;BME280;63465;50.862;6.220;2022-11-20T06:59:07;99472.09;;;3.72;82.79
74905;BME280;63465;50.862;6.220;2022-11-20T07:01:34;99477.28;;;3.74;82.25
74905;BME280;63465;50.862;6.220;2022-11-20T07:04:00;99473.91;;;3.69;82.31
74905;BME280;63465;50.862;6.220;2022-11-20T07:06:28;99473.22;;;3.61;82.44
74905;BME280;63465;50.862;6.220;2022-11-20T07:08:55;99466.78;;;3.74;82.15
74905;BME280;63465;50.862;6.220;2022-11-20T07:11:21;99469.53;;;3.69;82.67
74905;BME280;63465;50.862;6.220;2022-11-20T07:13:48;99468.72;;;3.66;82.34
74905;BME280;63465;50.862;6.220;2022-11-20T07:16:16;99474.44;;;3.83;81.75
74905;BME280;63465;50.862;6.220;2022-11-20T07:18:43;99469.75;;;3.95;80.86
74905;BME280;63465;50.862;6.220;2022-11-20T07:21:10;99469.97;;;3.87;81.47
74905;BME280;63465;50.862;6.220;2022-11-20T07:23:37;99472.38;;;3.95;81.28
74905;BME280;63465;50.862;6.220;2022-11-20T07:26:05;99462.88;;;3.90;81.25
74905;BME280;63465;50.862;6.220;2022-11-20T07:28:32;99467.34;;;3.87;82.28
74905;BME280;63465;50.862;6.220;2022-11-20T07:30:58;99459.88;;;4.06;81.35
74905;BME280;63465;50.862;6.220;2022-11-20T07:33:26;99455.63;;;4.00;81.54
74905;BME280;63465;50.862;6.220;2022-11-20T07:35:53;99460.84;;;4.02;81.88
74905;BME280;63465;50.862;6.220;2022-11-20T07:38:20;99448.44;;;4.07;80.94
74905;BME280;63465;50.862;6.220;2022-11-20T07:40:46;99452.28;;;3.95;81.44
74905;BME280;63465;50.862;6.220;2022-11-20T07:43:14;99446.97;;;3.97;81.46
74905;BME280;63465;50.862;6.220;2022-11-20T07:45:41;99454.69;;;4.03;81.14
74905;BME280;63465;50.862;6.220;2022-11-20T07:48:08;99456.47;;;4.01;81.04
74905;BME280;63465;50.862;6.220;2022-11-20T07:50:36;99454.94;;;3.92;81.22
74905;BME280;63465;50.862;6.220;2022-11-20T07:53:04;99443.75;;;3.85;81.00
74905;BME280;63465;50.862;6.220;2022-11-20T07:55:31;99451.78;;;3.79;81.59
74905;BME280;63465;50.862;6.220;2022-11-20T07:57:58;99448.31;;;4.11;80.58
74905;BME280;63465;50.862;6.220;2022-11-20T08:00:25;99445.66;;;4.13;80.53
74905;BME280;63465;50.862;6.220;2022-11-20T08:02:52;99439.97;;;3.97;80.21
74905;BME280;63465;50.862;6.220;2022-11-20T08:05:19;99447.78;;;3.99;81.19
74905;BME280;63465;50.862;6.220;2022-11-20T08:07:48;99451.16;;;4.04;81.31
74905;BME280;63465;50.862;6.220;2022-11-20T08:10:15;99453.78;;;4.04;81.08
74905;BME280;63465;50.862;6.220;2022-11-20T08:12:46;99459.75;;;4.10;81.40
74905;BME280;63465;50.862;6.220;2022-11-20T08:15:39;99458.53;;;4.22;80.07
74905;BME280;63465;50.862;6.220;2022-11-20T08:18:08;99456.44;;;4.02;80.69
74905;BME280;63465;50.862;6.220;2022-11-20T08:20:36;99467.47;;;4.17;81.40
74905;BME280;63465;50.862;6.220;2022-11-20T08:23:05;99459.63;;;4.15;81.06
74905;BME280;63465;50.862;6.220;2022-11-20T08:25:34;99454.53;;;4.09;81.19
74905;BME280;63465;50.862;6.220;2022-11-20T08:28:02;99449.38;;;4.06;80.96
74905;BME280;63465;50.862;6.220;2022-11-20T08:30:30;99461.44;;;4.11;80.66
74905;BME280;63465;50.862;6.220;2022-11-20T08:33:01;99450.53;;;4.27;80.25
74905;BME280;63465;50.862;6.220;2022-11-20T08:35:28;99451.34;;;4.60;78.83
74905;BME280;63465;50.862;6.220;2022-11-20T08:37:54;99449.75;;;4.55;78.37
74905;BME280;63465;50.862;6.220;2022-11-20T08:40:22;99432.69;;;4.40;79.18
74905;BME280;63465;50.862;6.220;2022-11-20T08:42:50;99433.84;;;4.29;80.34
74905;BME280;63465;50.862;6.220;2022-11-20T08:45:18;99428.28;;;4.72;78.94
74905;BME280;63465;50.862;6.220;2022-11-20T08:47:46;99429.34;;;4.94;78.30
74905;BME280;63465;50.862;6.220;2022-11-20T08:50:14;99427.16;;;5.09;76.43
74905;BME280;63465;50.862;6.220;2022-11-20T08:52:41;99435.84;;;5.11;76.21
74905;BME280;63465;50.862;6.220;2022-11-20T08:55:09;99441.78;;;4.89;77.67
74905;BME280;63465;50.862;6.220;2022-11-20T08:57:38;99436.47;;;4.91;77.68
74905;BME280;63465;50.862;6.220;2022-11-20T09:00:06;99445.75;;;5.03;76.83
74905;BME280;63465;50.862;6.220;2022-11-20T09:02:33;99444.09;;;5.28;75.74
74905;BME280;63465;50.862;6.220;2022-11-20T09:05:01;99441.59;;;4.95;76.77
74905;BME280;63465;50.862;6.220;2022-11-20T09:07:28;99444.84;;;4.74;78.04
74905;BME280;63465;50.862;6.220;2022-11-20T09:09:55;99449.84;;;4.83;78.10
74905;BME280;63465;50.862;6.220;2022-11-20T09:12:22;99442.66;;;4.88;77.58
74905;BME280;63465;50.862;6.220;2022-11-20T09:14:50;99441.97;;;5.11;76.75
74905;BME280;63465;50.862;6.220;2022-11-20T09:17:17;99436.91;;;5.33;76.14
74905;BME280;63465;50.862;6.220;2022-11-20T09:19:43;99433.47;;;5.03;77.30
74905;BME280;63465;50.862;6.220;2022-11-20T09:22:10;99432.31;;;5.12;76.02
74905;BME280;63465;50.862;6.220;2022-11-20T09:24:37;99436.56;;;4.88;77.63
74905;BME280;63465;50.862;6.220;2022-11-20T09:27:04;99429.75;;;4.80;77.10
74905;BME280;63465;50.862;6.220;2022-11-20T09:29:31;99415.25;;;4.97;77.00
74905;BME280;63465;50.862;6.220;2022-11-20T09:31:59;99416.75;;;5.06;77.69
74905;BME280;63465;50.862;6.220;2022-11-20T09:34:26;99410.81;;;5.27;75.50
74905;BME280;63465;50.862;6.220;2022-11-20T09:36:52;99405.84;;;5.45;74.67
74905;BME280;63465;50.862;6.220;2022-11-20T09:39:19;99405.09;;;5.13;75.96
74905;BME280;63465;50.862;6.220;2022-11-20T09:41:55;99402.38;;;5.16;77.11
74905;BME280;63465;50.862;6.220;2022-11-20T09:44:40;99413.72;;;5.18;76.42
74905;BME280;63465;50.862;6.220;2022-11-20T09:47:22;99405.47;;;5.29;76.58
74905;BME280;63465;50.862;6.220;2022-11-20T09:50:02;99410.50;;;5.63;75.22
74905;BME280;63465;50.862;6.220;2022-11-20T09:52:41;99405.84;;;5.45;75.46
74905;BME280;63465;50.862;6.220;2022-11-20T09:55:12;99405.53;;;5.54;74.95
74905;BME280;63465;50.862;6.220;2022-11-20T09:57:42;99407.16;;;5.58;75.56
74905;BME280;63465;50.862;6.220;2022-11-20T10:00:12;99393.81;;;5.38;76.30
74905;BME280;63465;50.862;6.220;2022-11-20T10:02:46;99395.81;;;5.29;76.28
74905;BME280;63465;50.862;6.220;2022-11-20T10:05:18;99385.75;;;5.69;76.11
74905;BME280;63465;50.862;6.220;2022-11-20T10:07:49;99385.47;;;5.77;75.93
74905;BME280;63465;50.862;6.220;2022-11-20T10:10:29;99384.69;;;5.75;75.07
74905;BME280;63465;50.862;6.220;2022-11-20T10:13:09;99386.00;;;5.61;76.02
74905;BME280;63465;50.862;6.220;2022-11-20T10:15:46;99386.28;;;5.79;74.78
74905;BME280;63465;50.862;6.220;2022-11-20T10:18:29;99385.81;;;5.41;76.24
74905;BME280;63465;50.862;6.220;2022-11-20T10:21:05;99379.38;;;5.76;75.41
74905;BME280;63465;50.862;6.220;2022-11-20T10:23:57;99382.88;;;5.50;76.46
74905;BME280;63465;50.862;6.220;2022-11-20T10:26:32;99375.69;;;5.80;75.97
74905;BME280;63465;50.862;6.220;2022-11-20T10:29:11;99370.03;;;5.93;76.00
74905;BME280;63465;50.862;6.220;2022-11-20T10:31:40;99369.16;;;5.92;75.92
74905;BME280;63465;50.862;6.220;2022-11-20T10:34:18;99367.41;;;5.91;75.98
74905;BME280;63465;50.862;6.220;2022-11-20T10:36:53;99367.84;;;5.79;76.29
74905;BME280;63465;50.862;6.220;2022-11-20T10:39:26;99368.06;;;5.72;77.08
74905;BME280;63465;50.862;6.220;2022-11-20T10:41:56;99351.59;;;5.93;75.90
74905;BME280;63465;50.862;6.220;2022-11-20T10:44:27;99351.19;;;6.05;76.20
74905;BME280;63465;50.862;6.220;2022-11-20T10:47:13;99335.38;;;6.29;74.99
74905;BME280;63465;50.862;6.220;2022-11-20T10:49:43;99343.16;;;6.32;75.32
74905;BME280;63465;50.862;6.220;2022-11-20T10:52:18;99334.50;;;6.52;74.34
74905;BME280;63465;50.862;6.220;2022-11-20T10:54:54;99324.56;;;6.36;75.41
74905;BME280;63465;50.862;6.220;2022-11-20T10:57:39;99325.75;;;6.51;74.85
74905;BME280;63465;50.862;6.220;2022-11-20T11:00:11;99310.22;;;6.43;75.15
74905;BME280;63465;50.862;6.220;2022-11-20T11:02:41;99312.97;;;6.40;75.60
74905;BME280;63465;50.862;6.220;2022-11-20T11:05:33;99317.19;;;6.68;74.71
74905;BME280;63465;50.862;6.220;2022-11-20T11:08:03;99311.59;;;6.76;74.27
74905;BME280;63465;50.862;6.220;2022-11-20T11:10:37;99300.81;;;6.60;75.14
74905;BME280;63465;50.862;6.220;2022-11-20T11:13:07;99295.53;;;6.60;75.32
74905;BME280;63465;50.862;6.220;2022-11-20T11:15:37;99290.53;;;6.52;75.94
74905;BME280;63465;50.862;6.220;2022-11-20T11:18:04;99280.94;;;6.73;75.31
74905;BME280;63465;50.862;6.220;2022-11-20T11:20:33;99287.63;;;6.60;76.85
74905;BME280;63465;50.862;6.220;2022-11-20T11:23:00;99284.00;;;6.63;76.82
74905;BME280;63465;50.862;6.220;2022-11-20T11:25:29;99271.81;;;6.82;76.76
74905;BME280;63465;50.862;6.220;2022-11-20T11:28:01;99272.88;;;7.41;74.57
74905;BME280;63465;50.862;6.220;2022-11-20T11:30:29;99265.09;;;7.38;74.58
74905;BME280;63465;50.862;6.220;2022-11-20T11:33:05;99246.69;;;7.37;74.87
74905;BME280;63465;50.862;6.220;2022-11-20T11:35:43;99249.91;;;7.43;75.17
74905;BME280;63465;50.862;6.220;2022-11-20T11:38:13;99239.47;;;7.40;74.79
74905;BME280;63465;50.862;6.220;2022-11-20T11:40:41;99240.72;;;7.31;75.97
74905;BME280;63465;50.862;6.220;2022-11-20T11:43:18;99229.22;;;7.53;75.23
74905;BME280;63465;50.862;6.220;2022-11-20T11:46:00;99226.28;;;7.40;75.85
74905;BME280;63465;50.862;6.220;2022-11-20T11:48:26;99231.53;;;7.61;75.39
74905;BME280;63465;50.862;6.220;2022-11-20T11:50:54;99230.03;;;7.35;76.53
74905;BME280;63465;50.862;6.220;2022-11-20T11:53:23;99225.94;;;7.48;76.36
74905;BME280;63465;50.862;6.220;2022-11-20T11:55:56;99226.03;;;7.46;76.78
74905;BME280;63465;50.862;6.220;2022-11-20T11:58:43;99220.50;;;7.72;75.93
74905;BME280;63465;50.862;6.220;2022-11-20T12:01:20;99212.41;;;7.95;74.81
74905;BME280;63465;50.862;6.220;2022-11-20T12:03:55;99200.81;;;7.79;75.56
74905;BME280;63465;50.862;6.220;2022-11-20T12:06:27;99205.66;;;7.69;76.54
74905;BME280;63465;50.862;6.220;2022-11-20T12:08:59;99208.50;;;7.64;76.10
74905;BME280;63465;50.862;6.220;2022-11-20T12:11:32;99202.69;;;7.96;74.27
74905;BME280;63465;50.862;6.220;2022-11-20T12:14:07;99201.06;;;7.54;75.47
74905;BME280;63465;50.862;6.220;2022-11-20T12:16:37;99189.41;;;7.78;74.25
74905;BME280;63465;50.862;6.220;2022-11-20T12:19:08;99190.53;;;7.73;74.36
74905;BME280;63465;50.862;6.220;2022-11-20T12:21:46;99180.03;;;7.71;74.63
74905;BME280;63465;50.862;6.220;2022-11-20T12:24:32;99179.47;;;7.64;74.50
74905;BME280;63465;50.862;6.220;2022-11-20T12:27:11;99181.00;;;7.49;75.34
74905;BME280;63465;50.862;6.220;2022-11-20T12:29:48;99175.22;;;7.21;77.15
74905;BME280;63465;50.862;6.220;2022-11-20T12:32:41;99179.41;;;7.45;76.00
74905;BME280;63465;50.862;6.220;2022-11-20T12:35:27;99168.91;;;7.25;77.03
74905;BME280;63465;50.862;6.220;2022-11-20T12:38:11;99160.59;;;7.53;76.69
74905;BME280;63465;50.862;6.220;2022-11-20T12:40:49;99150.78;;;7.36;77.33
74905;BME280;63465;50.862;6.220;2022-11-20T12:43:21;99156.41;;;7.49;77.38
74905;BME280;63465;50.862;6.220;2022-11-20T12:46:18;99145.25;;;7.42;77.96
74905;BME280;63465;50.862;6.220;2022-11-20T12:49:04;99147.88;;;7.42;78.27
74905;BME280;63465;50.862;6.220;2022-11-20T12:54:48;99140.44;;;7.90;76.46
74905;BME280;63465;50.862;6.220;2022-11-20T12:57:24;99132.09;;;8.17;75.15
74905;BME280;63465;50.862;6.220;2022-11-20T13:00:10;99138.38;;;8.33;73.59
74905;BME280;63465;50.862;6.220;2022-11-20T13:02:58;99124.44;;;8.30;73.53
74905;BME280;63465;50.862;6.220;2022-11-20T13:05:37;99119.50;;;8.41;73.45
74905;BME280;63465;50.862;6.220;2022-11-20T13:08:20;99114.19;;;8.41;72.97
74905;BME280;63465;50.862;6.220;2022-11-20T13:10:54;99110.03;;;8.54;73.06
74905;BME280;63465;50.862;6.220;2022-11-20T13:13:31;99094.81;;;8.60;72.89
74905;BME280;63465;50.862;6.220;2022-11-20T13:16:06;99091.59;;;8.53;72.18
74905;BME280;63465;50.862;6.220;2022-11-20T13:18:38;99090.28;;;8.62;72.45
74905;BME280;63465;50.862;6.220;2022-11-20T13:21:16;99091.16;;;8.62;72.32
74905;BME280;63465;50.862;6.220;2022-11-20T13:23:43;99086.31;;;8.53;72.43
74905;BME280;63465;50.862;6.220;2022-11-20T13:26:20;99079.16;;;8.72;72.27
74905;BME280;63465;50.862;6.220;2022-11-20T13:28:59;99074.97;;;8.68;71.56